createdAt,value
2019-04-21T00:00:37.414Z,23.18
2019-04-21T00:03:15.265Z,23.47
2019-04-21T00:06:01.424Z,24.12
2019-04-21T00:08:44.168Z,24.45
2019-04-21T00:11:02.755Z,24.45
2019-04-21T00:13:27.941Z,24.25
2019-04-21T00:15:49.868Z,35.38
2019-04-21T00:18:25.416Z,34.35
2019-04-21T00:20:58.298Z,36.95
2019-04-21T00:23:41.200Z,35.45
2019-04-21T00:26:07.510Z,31.73
2019-04-21T00:28:51.942Z,33.78
2019-04-21T00:31:18.164Z,33.13
2019-04-21T00:33:34.350Z,34.20
2019-04-21T00:36:11.516Z,33.50
2019-04-21T00:39:09.542Z,34.73
2019-04-21T00:41:25.100Z,31.02
2019-04-21T00:43:49.151Z,33.45
2019-04-21T00:46:19.054Z,31.60
2019-04-21T00:48:59.206Z,31.80
2019-04-21T00:51:40.504Z,34.95
2019-04-21T00:54:13.109Z,39.75
2019-04-21T00:56:36.626Z,33.60
2019-04-21T00:59:05.841Z,34.83
2019-04-21T01:01:31.361Z,35.90
2019-04-21T01:04:10.137Z,35.43
2019-04-21T01:06:45.039Z,37.83
2019-04-21T01:09:07.755Z,34.08
2019-04-21T01:11:44.953Z,43.63
2019-04-21T01:14:13.447Z,36.38
2019-04-21T01:16:48.142Z,36.80
2019-04-21T01:19:13.927Z,36.15
2019-04-21T01:21:23.772Z,34.20
2019-04-21T01:23:55.736Z,37.40
2019-04-21T01:26:40.977Z,36.70
2019-04-21T01:29:12.066Z,33.90
2019-04-21T01:31:41.648Z,37.60
2019-04-21T01:34:27.510Z,36.35
2019-04-21T01:36:46.165Z,39.23
2019-04-21T01:39:29.158Z,34.48
2019-04-21T01:41:55.408Z,35.23
2019-04-21T01:44:34.876Z,36.80
2019-04-21T01:46:54.529Z,31.95
2019-04-21T01:49:18.230Z,38.83
2019-04-21T01:52:10.052Z,37.38
2019-04-21T01:54:48.181Z,37.48
2019-04-21T01:57:23.140Z,45.15
2019-04-21T01:59:54.276Z,35.33
2019-04-21T02:02:32.318Z,45.10
2019-04-21T02:05:03.452Z,41.98
2019-04-21T02:07:34.261Z,41.60
2019-04-21T02:10:07.819Z,40.48
2019-04-21T02:12:31.630Z,39.13
2019-04-21T02:15:14.256Z,38.90
2019-04-21T02:17:38.796Z,38.25
2019-04-21T02:20:00.100Z,42.65
2019-04-21T02:22:59.898Z,38.88
2019-04-21T02:25:14.017Z,41.08
2019-04-21T02:27:43.016Z,40.03
2019-04-21T02:30:18.503Z,44.95
2019-04-21T02:35:30.388Z,39.73
2019-04-21T02:40:33.565Z,41.77
2019-04-21T02:45:34.613Z,40.50
2019-04-21T02:50:33.963Z,38.50
2019-04-21T02:53:00.832Z,36.93
2019-04-21T02:55:36.681Z,39.88
2019-04-21T02:58:09.973Z,36.83
2019-04-21T03:01:00.565Z,37.10
2019-04-21T03:03:34.369Z,36.03
2019-04-21T03:08:50.120Z,37.20
2019-04-21T03:23:57.414Z,34.05
2019-04-21T03:29:00.896Z,32.95
2019-04-21T03:31:36.676Z,34.50
2019-04-21T03:38:51.317Z,29.10
2019-04-21T03:44:09.899Z,34.40
2019-04-21T03:46:32.511Z,31.82
2019-04-21T03:49:07.563Z,33.05
2019-04-21T04:01:57.726Z,37.50
2019-04-21T04:04:52.736Z,31.73
2019-04-21T04:08:09.432Z,31.85
2019-04-21T04:10:22.065Z,31.95
2019-04-21T04:12:57.707Z,32.58
2019-04-21T04:15:34.809Z,32.73
2019-04-21T04:17:57.055Z,33.38
2019-04-21T04:20:30.323Z,33.35
2019-04-21T04:23:15.045Z,32.40
2019-04-21T04:25:27.363Z,35.80
2019-04-21T04:28:14.247Z,33.23
2019-04-21T04:30:29.655Z,33.20
2019-04-21T04:32:56.476Z,32.00
2019-04-21T04:35:49.548Z,39.55
2019-04-21T04:38:07.209Z,32.95
2019-04-21T04:40:38.325Z,31.25
2019-04-21T04:43:19.894Z,31.82
2019-04-21T04:48:11.108Z,35.13
2019-04-21T04:53:40.064Z,35.60
2019-04-21T04:55:45.739Z,37.05
2019-04-21T05:01:08.544Z,32.33
2019-04-21T05:09:11.335Z,31.82
2019-04-21T05:14:16.206Z,34.98
2019-04-21T05:21:42.199Z,33.00
2019-04-21T05:24:16.318Z,32.45
2019-04-21T05:26:27.516Z,31.87
2019-04-21T05:28:56.741Z,32.95
2019-04-21T05:31:56.622Z,34.13
2019-04-21T05:34:27.649Z,36.23
2019-04-21T05:37:27.239Z,40.95
2019-04-21T05:40:10.647Z,37.13
2019-04-21T05:42:44.430Z,35.08
2019-04-21T05:45:29.714Z,39.20
2019-04-21T05:48:19.282Z,34.83
2019-04-21T05:50:34.983Z,36.10
2019-04-21T05:53:17.714Z,37.30
2019-04-21T05:55:46.371Z,22.07
2019-04-21T05:58:09.725Z,32.55
2019-04-21T06:03:26.749Z,38.40
2019-04-21T06:08:25.684Z,33.63
2019-04-21T06:11:05.139Z,34.40
2019-04-21T06:13:35.071Z,34.00
2019-04-21T06:16:02.049Z,32.78
2019-04-21T06:21:05.569Z,33.50
2019-04-21T06:23:36.794Z,37.55
2019-04-21T06:26:17.913Z,28.98
2019-04-21T06:28:41.668Z,30.85
2019-04-21T06:31:12.655Z,32.48
2019-04-21T06:33:43.157Z,28.60
2019-04-21T06:36:38.266Z,36.50
2019-04-21T06:39:17.955Z,35.28
2019-04-21T06:41:33.881Z,38.85
2019-04-21T06:44:09.478Z,39.23
2019-04-21T06:49:07.012Z,22.48
2019-04-21T06:51:35.792Z,33.58
2019-04-21T06:54:10.072Z,29.92
2019-04-21T06:56:48.348Z,19.85
2019-04-21T06:59:09.588Z,20.20
2019-04-21T07:01:49.579Z,25.70
2019-04-21T07:04:29.673Z,29.77
2019-04-21T07:06:50.014Z,21.57
2019-04-21T07:09:25.732Z,17.90
2019-04-21T07:11:50.525Z,31.40
2019-04-21T07:14:29.331Z,19.63
2019-04-21T07:17:16.038Z,22.83
2019-04-21T07:19:30.709Z,23.93
2019-04-21T07:21:51.972Z,19.80
2019-04-21T07:24:31.984Z,25.50
2019-04-21T07:26:55.365Z,21.80
2019-04-21T07:29:56.622Z,33.53
2019-04-21T07:34:36.391Z,45.13
2019-04-21T07:37:12.531Z,33.37
2019-04-21T07:39:30.082Z,32.30
2019-04-21T07:41:59.355Z,37.20
2019-04-21T07:44:28.742Z,22.80
2019-04-21T07:47:01.052Z,43.53
2019-04-21T07:53:03.677Z,27.20
2019-04-21T07:57:49.364Z,24.50
2019-04-21T08:00:29.387Z,26.63
2019-04-21T08:02:54.036Z,66.57
2019-04-21T08:05:27.941Z,47.40
2019-04-21T08:07:59.236Z,25.40
2019-04-21T08:10:27.304Z,23.20
2019-04-21T08:13:01.550Z,32.07
2019-04-21T08:15:42.274Z,29.00
2019-04-21T08:18:07.512Z,25.10
2019-04-21T08:20:34.880Z,24.87
2019-04-21T08:23:07.620Z,26.10
2019-04-21T08:25:47.681Z,26.37
2019-04-21T08:28:05.963Z,34.40
2019-04-21T08:30:55.482Z,20.27
2019-04-21T08:33:17.538Z,20.57
2019-04-21T08:36:06.029Z,24.90
2019-04-21T08:38:13.592Z,24.13
2019-04-21T08:40:43.216Z,19.90
2019-04-21T08:43:20.631Z,24.70
2019-04-21T08:45:49.346Z,23.00
2019-04-21T08:48:19.414Z,24.90
2019-04-21T08:51:00.415Z,20.87
2019-04-21T08:53:19.612Z,23.23
2019-04-21T08:56:25.435Z,21.53
2019-04-21T08:59:17.829Z,22.97
2019-04-21T09:01:48.902Z,25.30
2019-04-21T09:04:23.377Z,21.30
2019-04-21T09:07:05.140Z,21.60
2019-04-21T09:09:29.139Z,22.37
2019-04-21T09:11:59.662Z,25.90
2019-04-21T09:14:33.861Z,31.97
2019-04-21T09:16:57.725Z,24.47
2019-04-21T09:19:38.585Z,22.10
2019-04-21T09:22:00.540Z,22.77
2019-04-21T09:24:33.431Z,23.37
2019-04-21T09:27:07.149Z,27.70
2019-04-21T09:29:26.484Z,21.90
2019-04-21T09:31:51.708Z,32.80
2019-04-21T09:34:27.125Z,19.07
2019-04-21T09:36:58.761Z,21.07
2019-04-21T09:39:25.572Z,28.70
2019-04-21T09:41:57.136Z,23.10
2019-04-21T09:44:30.961Z,30.30
2019-04-21T09:46:59.685Z,24.40
2019-04-21T09:49:29.472Z,20.47
2019-04-21T09:51:57.680Z,31.87
2019-04-21T09:54:31.539Z,22.00
2019-04-21T09:57:03.322Z,21.17
2019-04-21T09:59:33.637Z,22.67
2019-04-21T10:02:08.477Z,21.40
2019-04-21T10:04:31.631Z,21.93
2019-04-21T10:07:02.346Z,22.70
2019-04-21T10:09:33.238Z,21.63
2019-04-21T10:12:03.134Z,23.27
2019-04-21T10:14:33.004Z,18.17
2019-04-21T10:17:24.755Z,9.53
2019-04-21T10:19:55.098Z,10.43
2019-04-21T10:22:24.480Z,18.93
2019-04-21T10:24:54.319Z,20.87
2019-04-21T10:27:23.699Z,20.60
2019-04-21T10:29:53.962Z,12.27
2019-04-21T10:32:25.259Z,13.03
2019-04-21T10:34:55.116Z,13.23
2019-04-21T10:37:41.302Z,21.70
2019-04-21T10:39:55.854Z,13.07
2019-04-21T10:42:25.388Z,68.23
2019-04-21T10:44:54.874Z,11.83
2019-04-21T10:47:24.803Z,21.63
2019-04-21T10:49:54.907Z,20.93
2019-04-21T10:52:33.987Z,19.73
2019-04-21T10:55:19.162Z,12.30
2019-04-21T10:57:34.899Z,22.70
2019-04-21T11:00:07.471Z,21.60
2019-04-21T11:02:41.299Z,22.90
2019-04-21T11:05:10.815Z,20.50
2019-04-21T11:07:58.934Z,13.20
2019-04-21T11:10:18.282Z,20.87
2019-04-21T11:12:47.919Z,20.20
2019-04-21T11:15:18.948Z,18.83
2019-04-21T11:17:49.207Z,19.60
2019-04-21T11:20:19.917Z,20.33
2019-04-21T11:22:49.518Z,19.30
2019-04-21T11:25:20.022Z,20.67
2019-04-21T11:27:51.082Z,19.30
2019-04-21T11:30:20.686Z,18.27
2019-04-21T11:32:51.139Z,21.03
2019-04-21T11:35:21.255Z,18.77
2019-04-21T11:37:52.159Z,19.60
2019-04-21T11:40:23.476Z,11.23
2019-04-21T11:42:53.675Z,21.27
2019-04-21T11:45:32.706Z,9.47
2019-04-21T11:48:30.593Z,20.70
2019-04-21T11:51:01.315Z,20.97
2019-04-21T11:53:30.862Z,13.10
2019-04-21T11:56:00.795Z,21.30
2019-04-21T11:58:30.282Z,21.63
2019-04-21T12:01:00.822Z,24.13
2019-04-21T12:03:31.567Z,23.90
2019-04-21T12:06:01.541Z,20.40
2019-04-21T12:08:40.187Z,22.77
2019-04-21T12:11:03.278Z,23.33
2019-04-21T12:13:34.061Z,21.33
2019-04-21T12:16:03.585Z,20.57
2019-04-21T12:18:34.016Z,22.60
2019-04-21T12:21:03.520Z,22.87
2019-04-21T12:23:34.275Z,23.67
2019-04-21T12:26:05.110Z,23.03
2019-04-21T12:28:34.883Z,24.03
2019-04-21T12:31:05.943Z,21.27
2019-04-21T12:34:03.643Z,20.90
2019-04-21T12:36:33.838Z,20.50
2019-04-21T12:39:05.557Z,12.73
2019-04-21T12:41:36.201Z,22.50
2019-04-21T12:44:06.708Z,20.60
2019-04-21T12:46:36.161Z,21.83
2019-04-21T12:49:05.633Z,22.57
2019-04-21T12:51:35.601Z,13.43
2019-04-21T12:54:05.849Z,22.60
2019-04-21T12:56:35.759Z,12.03
2019-04-21T12:59:05.222Z,20.43
2019-04-21T13:01:35.005Z,21.67
2019-04-21T13:04:05.811Z,21.10
2019-04-21T13:06:35.612Z,20.83
2019-04-21T13:09:10.772Z,12.67
2019-04-21T13:11:38.960Z,20.80
2019-04-21T13:14:08.661Z,17.87
2019-04-21T13:16:39.183Z,20.07
2019-04-21T13:19:09.336Z,21.13
2019-04-21T13:21:40.159Z,17.77
2019-04-21T13:24:09.748Z,17.97
2019-04-21T13:26:45.647Z,18.67
2019-04-21T13:29:10.289Z,18.50
2019-04-21T13:31:40.411Z,19.67
2019-04-21T13:34:10.467Z,21.17
2019-04-21T13:36:41.331Z,20.60
2019-04-21T13:42:10.690Z,19.47
2019-04-21T13:44:33.063Z,20.57
2019-04-21T13:47:03.210Z,19.47
2019-04-21T13:49:32.595Z,12.63
2019-04-21T13:52:02.683Z,20.80
2019-04-21T13:54:33.627Z,12.10
2019-04-21T13:57:04.797Z,19.67
2019-04-21T13:59:34.434Z,20.50
2019-04-21T14:02:04.774Z,19.77
2019-04-21T14:04:35.533Z,18.90
2019-04-21T14:07:06.074Z,20.20
2019-04-21T14:09:43.753Z,20.70
2019-04-21T14:12:07.628Z,20.20
2019-04-21T14:14:38.514Z,18.37
2019-04-21T14:17:08.993Z,14.40
2019-04-21T14:19:39.451Z,18.53
2019-04-21T14:22:11.705Z,20.20
2019-04-21T14:24:41.529Z,18.93
2019-04-21T14:27:12.144Z,20.93
2019-04-21T14:29:41.813Z,20.43
2019-04-21T14:32:11.221Z,21.53
2019-04-21T14:34:41.968Z,18.43
2019-04-21T14:37:12.920Z,37.37
2019-04-21T14:39:54.707Z,24.90
2019-04-21T14:42:14.069Z,19.43
2019-04-21T14:44:44.979Z,19.90
2019-04-21T14:47:27.124Z,18.40
2019-04-21T14:50:22.283Z,17.87
2019-04-21T14:53:09.938Z,18.77
2019-04-21T14:55:41.640Z,15.10
2019-04-21T14:58:11.098Z,19.80
2019-04-21T15:01:15.852Z,18.87
2019-04-21T15:03:45.653Z,13.27
2019-04-21T15:06:15.745Z,17.27
2019-04-21T15:08:45.487Z,19.20
2019-04-21T15:11:16.087Z,20.20
2019-04-21T15:13:45.935Z,18.83
2019-04-21T15:16:15.386Z,19.20
2019-04-21T15:18:46.416Z,18.83
2019-04-21T15:21:17.366Z,17.20
2019-04-21T15:23:48.368Z,17.40
2019-04-21T15:26:18.075Z,114.80
2019-04-21T15:28:48.862Z,12.23
2019-04-21T15:31:26.694Z,17.33
2019-04-21T15:33:49.620Z,18.37
2019-04-21T15:36:19.098Z,19.80
2019-04-21T15:38:50.267Z,19.20
2019-04-21T15:41:20.606Z,10.97
2019-04-21T15:43:50.805Z,18.93
2019-04-21T15:46:20.545Z,16.43
2019-04-21T15:48:50.992Z,17.80
2019-04-21T15:51:21.641Z,17.73
2019-04-21T15:53:52.005Z,17.13
2019-04-21T15:56:40.839Z,18.67
2019-04-21T15:59:26.668Z,16.30
2019-04-21T16:02:24.560Z,19.57
2019-04-21T16:04:54.856Z,18.40
2019-04-21T16:07:26.449Z,20.00
2019-04-21T16:09:57.612Z,18.63
2019-04-21T16:12:27.771Z,11.77
2019-04-21T16:14:58.694Z,19.93
2019-04-21T16:17:29.514Z,18.53
2019-04-21T16:19:59.715Z,16.37
2019-04-21T16:22:30.553Z,19.80
2019-04-21T16:25:00.905Z,11.90
2019-04-21T16:27:30.316Z,19.00
2019-04-21T16:29:59.725Z,19.03
2019-04-21T16:32:30.490Z,17.23
2019-04-21T16:35:05.325Z,25.87
2019-04-21T16:37:31.869Z,18.47
2019-04-21T16:40:01.410Z,18.13
2019-04-21T16:42:32.146Z,20.27
2019-04-21T16:45:03.136Z,17.97
2019-04-21T16:47:32.813Z,19.13
2019-04-21T16:50:03.467Z,18.47
2019-04-21T16:52:45.781Z,18.23
2019-04-21T16:55:41.462Z,17.40
2019-04-21T16:58:38.934Z,17.00
2019-04-21T17:01:14.911Z,18.70
2019-04-21T17:03:42.491Z,16.27
2019-04-21T17:06:13.230Z,15.77
2019-04-21T17:08:43.084Z,17.80
2019-04-21T17:11:19.278Z,17.33
2019-04-21T17:13:43.767Z,18.17
2019-04-21T17:16:43.438Z,18.37
2019-04-21T17:18:58.490Z,17.87
2019-04-21T17:21:16.789Z,18.17
2019-04-21T17:23:46.505Z,19.70
2019-04-21T17:26:17.083Z,25.50
2019-04-21T17:28:46.718Z,17.73
2019-04-21T17:31:16.256Z,16.63
2019-04-21T17:33:47.184Z,15.90
2019-04-21T17:36:16.875Z,18.27
2019-04-21T17:38:46.259Z,15.80
2019-04-21T17:41:25.969Z,22.00
2019-04-21T17:43:47.852Z,16.87
2019-04-21T17:46:24.541Z,19.17
2019-04-21T17:48:49.288Z,17.57
2019-04-21T17:51:49.375Z,16.90
2019-04-21T17:54:32.143Z,17.67
2019-04-21T17:57:20.272Z,15.73
2019-04-21T17:59:58.870Z,18.33
2019-04-21T18:02:23.234Z,7.27
2019-04-21T18:04:49.404Z,17.27
2019-04-21T18:07:26.535Z,19.73
2019-04-21T18:10:00.873Z,20.27
2019-04-21T18:12:32.225Z,19.13
2019-04-21T18:14:54.155Z,18.40
2019-04-21T18:17:14.708Z,20.70
2019-04-21T18:19:47.421Z,7.50
2019-04-21T18:22:36.016Z,16.67
2019-04-21T18:25:07.621Z,9.30
2019-04-21T18:27:34.482Z,20.27
2019-04-21T18:30:18.183Z,9.10
2019-04-21T18:32:48.257Z,6.50
2019-04-21T18:35:24.663Z,27.07
2019-04-21T18:38:13.294Z,22.57
2019-04-21T18:40:38.618Z,15.10
2019-04-21T18:43:48.586Z,20.57
2019-04-21T18:46:27.017Z,18.57
2019-04-21T18:49:04.589Z,17.50
2019-04-21T18:52:01.129Z,13.30
2019-04-21T18:54:41.320Z,11.40
2019-04-21T18:57:04.500Z,12.53
2019-04-21T18:59:29.830Z,12.43
2019-04-21T19:02:02.454Z,12.77
2019-04-21T19:04:30.051Z,18.80
2019-04-21T19:07:13.154Z,20.23
2019-04-21T19:12:24.072Z,11.63
2019-04-21T19:14:46.493Z,12.50
2019-04-21T19:17:48.598Z,23.57
2019-04-21T19:19:54.638Z,23.83
2019-04-21T19:22:34.125Z,22.93
2019-04-21T19:25:16.936Z,12.30
2019-04-21T19:27:31.040Z,12.57
2019-04-21T19:32:33.479Z,13.10
2019-04-21T19:34:52.599Z,10.53
2019-04-21T19:37:22.956Z,10.47
2019-04-21T19:40:03.552Z,10.60
2019-04-21T19:42:36.686Z,9.80
2019-04-21T19:45:11.799Z,10.93
2019-04-21T19:47:45.104Z,19.40
2019-04-21T19:50:16.847Z,10.90
2019-04-21T19:52:41.003Z,18.90
2019-04-21T19:55:00.590Z,10.93
2019-04-21T19:57:31.325Z,9.77
2019-04-21T20:00:05.789Z,10.37
2019-04-21T20:02:32.316Z,20.60
2019-04-21T20:05:08.853Z,21.47
2019-04-21T20:07:49.487Z,23.40
2019-04-21T20:10:26.877Z,22.60
2019-04-21T20:12:56.989Z,22.37
2019-04-21T20:15:35.849Z,21.17
2019-04-21T20:17:57.555Z,11.70
2019-04-21T20:20:13.403Z,20.20
2019-04-21T20:22:48.519Z,22.90
2019-04-21T20:25:19.960Z,20.87
2019-04-21T20:27:55.403Z,23.03
2019-04-21T20:30:37.664Z,18.80
2019-04-21T20:33:20.243Z,21.80
2019-04-21T20:35:44.757Z,19.67
2019-04-21T20:38:09.736Z,20.47
2019-04-21T20:40:35.864Z,18.43
2019-04-21T20:43:23.948Z,12.17
2019-04-21T20:45:46.052Z,16.90
2019-04-21T20:48:07.278Z,10.63
2019-04-21T20:50:43.488Z,15.20
2019-04-21T20:53:16.500Z,15.47
2019-04-21T20:55:48.572Z,15.57
2019-04-21T20:58:22.636Z,16.50
2019-04-21T21:01:18.980Z,13.93
2019-04-21T21:03:24.852Z,14.70
2019-04-21T21:05:49.700Z,11.77
2019-04-21T21:08:31.158Z,14.60
2019-04-21T21:10:53.764Z,14.20
2019-04-21T21:13:31.973Z,13.57
2019-04-21T21:16:10.170Z,14.20
2019-04-21T21:18:53.335Z,13.53
2019-04-21T21:21:01.674Z,14.77
2019-04-21T21:23:40.605Z,13.17
2019-04-21T21:26:09.490Z,14.87
2019-04-21T21:28:32.773Z,15.10
2019-04-21T21:31:07.333Z,15.00
2019-04-21T21:33:35.479Z,16.77
2019-04-21T21:36:12.411Z,15.13
2019-04-21T21:38:39.307Z,15.80
2019-04-21T21:41:04.915Z,16.30
2019-04-21T21:43:26.933Z,18.60
2019-04-21T21:45:59.021Z,17.40
2019-04-21T21:48:40.853Z,15.33
2019-04-21T21:51:05.813Z,15.70
2019-04-21T21:53:31.706Z,16.20
2019-04-21T21:56:00.688Z,17.33
2019-04-21T21:58:36.064Z,15.40
2019-04-21T22:01:04.926Z,15.00
2019-04-21T22:03:39.100Z,14.90
2019-04-21T22:06:12.014Z,14.53
2019-04-21T22:08:36.515Z,14.18
2019-04-21T22:11:07.201Z,14.67
2019-04-21T22:13:46.929Z,14.30
2019-04-21T22:16:13.875Z,14.10
2019-04-21T22:19:01.558Z,12.93
2019-04-21T22:21:27.860Z,14.00
2019-04-21T22:23:52.830Z,12.53
2019-04-21T22:26:13.363Z,13.70
2019-04-21T22:28:43.555Z,12.70
2019-04-21T22:31:18.214Z,12.70
2019-04-21T22:33:49.741Z,12.10
2019-04-21T22:36:26.740Z,11.17
2019-04-21T22:39:05.220Z,11.97
2019-04-21T22:41:26.324Z,12.30
2019-04-21T22:43:51.672Z,13.17
2019-04-21T22:46:20.222Z,13.30
2019-04-21T22:48:53.146Z,11.17
2019-04-21T22:51:30.201Z,10.82
2019-04-21T22:53:55.490Z,12.07
2019-04-21T22:56:26.856Z,10.90
2019-04-21T22:58:54.999Z,11.80
2019-04-21T23:01:33.681Z,11.63
2019-04-21T23:04:00.958Z,10.75
2019-04-21T23:06:30.893Z,11.83
2019-04-21T23:08:59.134Z,10.82
2019-04-21T23:11:37.503Z,10.18
2019-04-21T23:14:04.241Z,10.55
2019-04-21T23:16:35.324Z,9.10
2019-04-21T23:19:22.625Z,10.78
2019-04-21T23:21:55.479Z,12.18
2019-04-21T23:24:30.236Z,9.85
2019-04-21T23:26:48.626Z,11.38
2019-04-21T23:29:33.428Z,10.72
2019-04-21T23:31:55.047Z,11.85
2019-04-21T23:34:10.855Z,10.25
2019-04-21T23:36:48.052Z,10.95
2019-04-21T23:39:17.025Z,10.48
2019-04-21T23:41:46.028Z,9.90
2019-04-21T23:44:14.112Z,10.50
2019-04-21T23:46:44.426Z,9.85
2019-04-21T23:49:28.336Z,10.10
2019-04-21T23:51:54.682Z,10.32
2019-04-21T23:54:17.492Z,11.43
2019-04-21T23:56:47.841Z,9.78
2019-04-21T23:59:18.051Z,10.20
